Terminal Aerodrome Forecast
Issued by NWS St Louis, MO

Home | Current Version | Previous Version | Text Only | Print | Product List | Glossary On
Versions: 1 2 3 4 5 6 7 8 9 10 11 12 13 14 15 16 17 18 19 20 21 22 23 24 25 26 27
000
FTUS43 KLSX 200520
TAFSTL
TAF
KSTL 200520Z 2006/2112 06012KT P6SM OVC009
     FM200700 09009KT P6SM VCTS BKN008 OVC015CB
     FM200900 10009KT 5SM -SHRA VCTS OVC035CB
      TEMPO 2009/2012 3SM -TSRA OVC015CB
     FM201200 13009KT 6SM -SHRA OVC025
     FM201400 15009KT P6SM OVC050
     FM202100 19012KT P6SM VCTS BKN060CB
     FM210000 21008KT P6SM BKN090=

USA.gov is the U.S. government's official web portal to all federal, state and local government web resources and services.